sensor_id;sensor_type;location;lat;lon;timestamp;P1;durP1;ratioP1;P2;durP2;ratioP2
38034;SDS011;23841;48.524;1.342;2022-09-09T00:02:05;3.60;;;1.23;;
38034;SDS011;23841;48.524;1.342;2022-09-09T00:04:45;1.80;;;0.63;;
38034;SDS011;23841;48.524;1.342;2022-09-09T00:07:34;3.92;;;1.23;;
38034;SDS011;23841;48.524;1.342;2022-09-09T00:16:15;4.30;;;1.00;;
38034;SDS011;23841;48.524;1.342;2022-09-09T00:23:50;5.70;;;2.05;;
38034;SDS011;23841;48.524;1.342;2022-09-09T00:29:12;2.58;;;0.82;;
38034;SDS011;23841;48.524;1.342;2022-09-09T00:31:48;5.60;;;1.20;;
38034;SDS011;23841;48.524;1.342;2022-09-09T00:34:15;3.67;;;1.02;;
38034;SDS011;23841;48.524;1.342;2022-09-09T00:36:49;5.20;;;1.27;;
38034;SDS011;23841;48.524;1.342;2022-09-09T00:42:16;5.03;;;1.00;;
38034;SDS011;23841;48.524;1.342;2022-09-09T00:44:50;6.07;;;1.00;;
38034;SDS011;23841;48.524;1.342;2022-09-09T00:50:19;4.63;;;1.27;;
38034;SDS011;23841;48.524;1.342;2022-09-09T00:58:15;5.53;;;1.00;;
38034;SDS011;23841;48.524;1.342;2022-09-09T01:00:44;4.78;;;1.83;;
38034;SDS011;23841;48.524;1.342;2022-09-09T01:06:29;3.47;;;1.20;;
38034;SDS011;23841;48.524;1.342;2022-09-09T01:14:32;5.47;;;1.63;;
38034;SDS011;23841;48.524;1.342;2022-09-09T01:17:02;5.85;;;1.25;;
38034;SDS011;23841;48.524;1.342;2022-09-09T01:19:35;6.28;;;1.05;;
38034;SDS011;23841;48.524;1.342;2022-09-09T01:22:08;8.38;;;1.58;;
38034;SDS011;23841;48.524;1.342;2022-09-09T01:27:31;7.82;;;1.52;;
38034;SDS011;23841;48.524;1.342;2022-09-09T01:29:58;8.75;;;1.38;;
38034;SDS011;23841;48.524;1.342;2022-09-09T01:35:18;7.53;;;1.20;;
38034;SDS011;23841;48.524;1.342;2022-09-09T01:38:05;5.53;;;1.55;;
38034;SDS011;23841;48.524;1.342;2022-09-09T01:40:31;3.55;;;0.93;;
38034;SDS011;23841;48.524;1.342;2022-09-09T01:42:56;6.35;;;1.38;;
38034;SDS011;23841;48.524;1.342;2022-09-09T01:45:22;5.50;;;1.20;;
38034;SDS011;23841;48.524;1.342;2022-09-09T01:47:49;3.05;;;1.00;;
38034;SDS011;23841;48.524;1.342;2022-09-09T01:50:17;2.38;;;0.75;;
38034;SDS011;23841;48.524;1.342;2022-09-09T01:52:43;5.65;;;2.00;;
38034;SDS011;23841;48.524;1.342;2022-09-09T01:55:12;4.97;;;1.45;;
38034;SDS011;23841;48.524;1.342;2022-09-09T01:57:54;7.72;;;1.40;;
38034;SDS011;23841;48.524;1.342;2022-09-09T02:00:24;4.47;;;1.20;;
38034;SDS011;23841;48.524;1.342;2022-09-09T02:03:14;9.32;;;2.30;;
38034;SDS011;23841;48.524;1.342;2022-09-09T02:06:03;4.40;;;1.13;;
38034;SDS011;23841;48.524;1.342;2022-09-09T02:08:43;7.25;;;1.27;;
38034;SDS011;23841;48.524;1.342;2022-09-09T02:13:39;9.37;;;1.90;;
38034;SDS011;23841;48.524;1.342;2022-09-09T02:21:26;3.75;;;1.20;;
38034;SDS011;23841;48.524;1.342;2022-09-09T02:23:54;7.00;;;1.20;;
38034;SDS011;23841;48.524;1.342;2022-09-09T02:26:22;5.53;;;1.40;;
38034;SDS011;23841;48.524;1.342;2022-09-09T02:28:49;7.78;;;1.88;;
38034;SDS011;23841;48.524;1.342;2022-09-09T02:31:17;6.15;;;1.30;;
38034;SDS011;23841;48.524;1.342;2022-09-09T02:33:50;4.75;;;0.77;;
38034;SDS011;23841;48.524;1.342;2022-09-09T02:36:19;4.70;;;1.00;;
38034;SDS011;23841;48.524;1.342;2022-09-09T02:38:48;5.97;;;1.67;;
38034;SDS011;23841;48.524;1.342;2022-09-09T02:41:20;5.43;;;0.80;;
38034;SDS011;23841;48.524;1.342;2022-09-09T02:43:51;4.25;;;1.20;;
38034;SDS011;23841;48.524;1.342;2022-09-09T02:48:54;4.80;;;0.95;;
38034;SDS011;23841;48.524;1.342;2022-09-09T02:54:35;4.40;;;1.23;;
38034;SDS011;23841;48.524;1.342;2022-09-09T02:56:52;4.43;;;1.30;;
38034;SDS011;23841;48.524;1.342;2022-09-09T02:59:21;4.38;;;1.48;;
38034;SDS011;23841;48.524;1.342;2022-09-09T03:01:47;5.95;;;1.20;;
38034;SDS011;23841;48.524;1.342;2022-09-09T03:04:12;10.57;;;1.40;;
38034;SDS011;23841;48.524;1.342;2022-09-09T03:06:38;8.07;;;0.85;;
38034;SDS011;23841;48.524;1.342;2022-09-09T03:09:04;4.03;;;1.10;;
38034;SDS011;23841;48.524;1.342;2022-09-09T03:11:29;5.07;;;1.00;;
38034;SDS011;23841;48.524;1.342;2022-09-09T03:13:55;3.72;;;0.90;;
38034;SDS011;23841;48.524;1.342;2022-09-09T03:16:21;4.53;;;1.23;;
38034;SDS011;23841;48.524;1.342;2022-09-09T03:18:47;2.60;;;0.93;;
38034;SDS011;23841;48.524;1.342;2022-09-09T03:21:12;6.60;;;1.35;;
38034;SDS011;23841;48.524;1.342;2022-09-09T03:23:38;7.22;;;1.95;;
38034;SDS011;23841;48.524;1.342;2022-09-09T03:26:04;3.15;;;1.20;;
38034;SDS011;23841;48.524;1.342;2022-09-09T03:28:29;4.60;;;1.00;;
38034;SDS011;23841;48.524;1.342;2022-09-09T03:30:59;5.25;;;1.42;;
38034;SDS011;23841;48.524;1.342;2022-09-09T03:33:25;5.38;;;1.42;;
38034;SDS011;23841;48.524;1.342;2022-09-09T03:35:50;6.00;;;1.20;;
38034;SDS011;23841;48.524;1.342;2022-09-09T03:38:16;6.80;;;1.35;;
38034;SDS011;23841;48.524;1.342;2022-09-09T03:40:51;4.90;;;1.48;;
38034;SDS011;23841;48.524;1.342;2022-09-09T03:43:22;5.32;;;1.35;;
38034;SDS011;23841;48.524;1.342;2022-09-09T03:45:48;8.15;;;1.75;;
38034;SDS011;23841;48.524;1.342;2022-09-09T03:48:14;4.30;;;1.13;;
38034;SDS011;23841;48.524;1.342;2022-09-09T03:50:47;4.30;;;1.02;;
38034;SDS011;23841;48.524;1.342;2022-09-09T03:53:13;6.70;;;1.17;;
38034;SDS011;23841;48.524;1.342;2022-09-09T03:55:43;6.28;;;1.45;;
38034;SDS011;23841;48.524;1.342;2022-09-09T03:58:15;6.55;;;1.40;;
38034;SDS011;23841;48.524;1.342;2022-09-09T04:00:43;6.50;;;1.70;;
38034;SDS011;23841;48.524;1.342;2022-09-09T04:03:17;6.93;;;1.83;;
38034;SDS011;23841;48.524;1.342;2022-09-09T04:05:42;6.72;;;1.77;;
38034;SDS011;23841;48.524;1.342;2022-09-09T04:08:08;6.95;;;1.27;;
38034;SDS011;23841;48.524;1.342;2022-09-09T04:10:34;7.70;;;1.20;;
38034;SDS011;23841;48.524;1.342;2022-09-09T04:13:02;4.82;;;0.80;;
38034;SDS011;23841;48.524;1.342;2022-09-09T04:15:30;5.35;;;1.23;;
38034;SDS011;23841;48.524;1.342;2022-09-09T04:17:56;3.90;;;1.15;;
38034;SDS011;23841;48.524;1.342;2022-09-09T04:20:22;4.85;;;1.42;;
38034;SDS011;23841;48.524;1.342;2022-09-09T04:22:47;4.28;;;1.00;;
38034;SDS011;23841;48.524;1.342;2022-09-09T04:25:13;6.05;;;1.08;;
38034;SDS011;23841;48.524;1.342;2022-09-09T04:27:39;3.83;;;1.05;;
38034;SDS011;23841;48.524;1.342;2022-09-09T04:30:05;3.33;;;0.70;;
38034;SDS011;23841;48.524;1.342;2022-09-09T04:32:32;9.80;;;1.55;;
38034;SDS011;23841;48.524;1.342;2022-09-09T04:34:58;3.45;;;1.10;;
38034;SDS011;23841;48.524;1.342;2022-09-09T04:37:24;3.70;;;1.15;;
38034;SDS011;23841;48.524;1.342;2022-09-09T04:39:50;3.55;;;0.95;;
38034;SDS011;23841;48.524;1.342;2022-09-09T04:42:15;4.88;;;1.23;;
38034;SDS011;23841;48.524;1.342;2022-09-09T04:44:42;9.02;;;1.45;;
38034;SDS011;23841;48.524;1.342;2022-09-09T04:47:09;4.13;;;1.48;;
38034;SDS011;23841;48.524;1.342;2022-09-09T04:49:35;6.07;;;1.77;;
38034;SDS011;23841;48.524;1.342;2022-09-09T04:52:02;1.95;;;0.90;;
38034;SDS011;23841;48.524;1.342;2022-09-09T04:54:28;5.47;;;1.25;;
38034;SDS011;23841;48.524;1.342;2022-09-09T04:56:53;6.65;;;1.27;;
38034;SDS011;23841;48.524;1.342;2022-09-09T04:59:20;8.85;;;2.40;;
38034;SDS011;23841;48.524;1.342;2022-09-09T05:01:46;6.75;;;1.13;;
38034;SDS011;23841;48.524;1.342;2022-09-09T05:04:12;2.45;;;1.35;;
38034;SDS011;23841;48.524;1.342;2022-09-09T05:06:40;6.50;;;1.40;;
38034;SDS011;23841;48.524;1.342;2022-09-09T05:09:06;5.22;;;1.17;;
38034;SDS011;23841;48.524;1.342;2022-09-09T05:11:31;3.53;;;1.05;;
38034;SDS011;23841;48.524;1.342;2022-09-09T05:13:59;3.53;;;1.20;;
38034;SDS011;23841;48.524;1.342;2022-09-09T05:16:24;5.38;;;1.23;;
38034;SDS011;23841;48.524;1.342;2022-09-09T05:18:50;2.20;;;0.68;;
38034;SDS011;23841;48.524;1.342;2022-09-09T05:21:16;5.68;;;1.10;;
38034;SDS011;23841;48.524;1.342;2022-09-09T05:23:44;5.18;;;0.98;;
38034;SDS011;23841;48.524;1.342;2022-09-09T05:26:12;3.97;;;0.80;;
38034;SDS011;23841;48.524;1.342;2022-09-09T05:28:39;6.55;;;1.25;;
38034;SDS011;23841;48.524;1.342;2022-09-09T05:31:06;4.65;;;0.82;;
38034;SDS011;23841;48.524;1.342;2022-09-09T05:33:37;4.75;;;1.17;;
38034;SDS011;23841;48.524;1.342;2022-09-09T05:36:09;3.65;;;1.35;;
38034;SDS011;23841;48.524;1.342;2022-09-09T05:38:38;6.85;;;1.35;;
38034;SDS011;23841;48.524;1.342;2022-09-09T05:41:04;4.18;;;1.00;;
38034;SDS011;23841;48.524;1.342;2022-09-09T05:43:30;4.47;;;0.85;;
38034;SDS011;23841;48.524;1.342;2022-09-09T05:46:01;4.00;;;1.17;;
38034;SDS011;23841;48.524;1.342;2022-09-09T05:48:30;3.47;;;1.30;;
38034;SDS011;23841;48.524;1.342;2022-09-09T05:50:57;8.55;;;1.48;;
38034;SDS011;23841;48.524;1.342;2022-09-09T05:53:24;4.65;;;1.25;;
38034;SDS011;23841;48.524;1.342;2022-09-09T05:55:50;3.95;;;1.02;;
38034;SDS011;23841;48.524;1.342;2022-09-09T05:58:15;4.50;;;1.10;;
38034;SDS011;23841;48.524;1.342;2022-09-09T06:00:41;8.50;;;2.28;;
38034;SDS011;23841;48.524;1.342;2022-09-09T06:03:09;4.78;;;1.33;;
38034;SDS011;23841;48.524;1.342;2022-09-09T06:05:36;1.92;;;0.80;;
38034;SDS011;23841;48.524;1.342;2022-09-09T06:08:02;6.22;;;1.20;;
38034;SDS011;23841;48.524;1.342;2022-09-09T06:10:28;3.70;;;1.77;;
38034;SDS011;23841;48.524;1.342;2022-09-09T06:12:53;6.53;;;1.50;;
38034;SDS011;23841;48.524;1.342;2022-09-09T06:15:19;3.55;;;1.00;;
38034;SDS011;23841;48.524;1.342;2022-09-09T06:17:44;3.80;;;1.00;;
38034;SDS011;23841;48.524;1.342;2022-09-09T06:20:10;5.38;;;1.80;;
38034;SDS011;23841;48.524;1.342;2022-09-09T06:22:35;6.43;;;1.05;;
38034;SDS011;23841;48.524;1.342;2022-09-09T06:25:01;2.60;;;1.05;;
38034;SDS011;23841;48.524;1.342;2022-09-09T06:27:27;4.82;;;1.17;;
38034;SDS011;23841;48.524;1.342;2022-09-09T06:29:53;5.07;;;1.27;;
38034;SDS011;23841;48.524;1.342;2022-09-09T06:32:19;3.38;;;1.10;;
38034;SDS011;23841;48.524;1.342;2022-09-09T06:34:44;2.95;;;0.80;;
38034;SDS011;23841;48.524;1.342;2022-09-09T06:37:10;5.68;;;1.45;;
38034;SDS011;23841;48.524;1.342;2022-09-09T06:39:35;5.45;;;0.93;;
38034;SDS011;23841;48.524;1.342;2022-09-09T06:42:01;2.58;;;1.00;;
38034;SDS011;23841;48.524;1.342;2022-09-09T06:44:26;5.40;;;2.03;;
38034;SDS011;23841;48.524;1.342;2022-09-09T06:46:52;4.75;;;1.33;;
38034;SDS011;23841;48.524;1.342;2022-09-09T06:49:17;3.88;;;0.90;;
38034;SDS011;23841;48.524;1.342;2022-09-09T06:51:43;4.43;;;1.00;;
38034;SDS011;23841;48.524;1.342;2022-09-09T06:54:09;4.32;;;0.65;;
38034;SDS011;23841;48.524;1.342;2022-09-09T06:56:36;3.53;;;0.90;;
38034;SDS011;23841;48.524;1.342;2022-09-09T06:59:06;5.60;;;1.27;;
38034;SDS011;23841;48.524;1.342;2022-09-09T07:01:35;6.82;;;1.10;;
38034;SDS011;23841;48.524;1.342;2022-09-09T07:04:02;2.20;;;0.90;;
38034;SDS011;23841;48.524;1.342;2022-09-09T07:06:33;3.78;;;1.30;;
38034;SDS011;23841;48.524;1.342;2022-09-09T07:09:02;5.85;;;1.67;;
38034;SDS011;23841;48.524;1.342;2022-09-09T07:11:30;3.88;;;1.00;;
38034;SDS011;23841;48.524;1.342;2022-09-09T07:13:57;3.90;;;0.90;;
38034;SDS011;23841;48.524;1.342;2022-09-09T07:16:24;5.28;;;1.25;;
38034;SDS011;23841;48.524;1.342;2022-09-09T07:18:50;3.35;;;1.00;;
38034;SDS011;23841;48.524;1.342;2022-09-09T07:21:17;4.75;;;1.77;;
38034;SDS011;23841;48.524;1.342;2022-09-09T07:23:44;5.05;;;1.08;;
38034;SDS011;23841;48.524;1.342;2022-09-09T07:26:10;4.15;;;0.88;;
38034;SDS011;23841;48.524;1.342;2022-09-09T07:28:36;4.28;;;0.98;;
38034;SDS011;23841;48.524;1.342;2022-09-09T07:31:03;2.25;;;1.58;;
38034;SDS011;23841;48.524;1.342;2022-09-09T07:33:30;5.07;;;0.90;;
38034;SDS011;23841;48.524;1.342;2022-09-09T07:38:49;5.80;;;1.15;;
38034;SDS011;23841;48.524;1.342;2022-09-09T07:41:19;3.97;;;0.85;;
38034;SDS011;23841;48.524;1.342;2022-09-09T07:43:47;2.90;;;1.02;;
38034;SDS011;23841;48.524;1.342;2022-09-09T07:46:14;5.82;;;1.40;;
38034;SDS011;23841;48.524;1.342;2022-09-09T07:48:48;5.28;;;1.20;;
38034;SDS011;23841;48.524;1.342;2022-09-09T07:51:28;1.90;;;1.00;;
38034;SDS011;23841;48.524;1.342;2022-09-09T07:53:59;4.03;;;0.70;;
38034;SDS011;23841;48.524;1.342;2022-09-09T07:56:27;5.38;;;1.00;;
38034;SDS011;23841;48.524;1.342;2022-09-09T07:58:54;4.63;;;1.10;;
38034;SDS011;23841;48.524;1.342;2022-09-09T08:01:22;2.88;;;0.70;;
38034;SDS011;23841;48.524;1.342;2022-09-09T08:03:54;2.90;;;1.35;;
38034;SDS011;23841;48.524;1.342;2022-09-09T08:06:27;2.55;;;1.00;;
38034;SDS011;23841;48.524;1.342;2022-09-09T08:08:53;3.53;;;1.08;;
38034;SDS011;23841;48.524;1.342;2022-09-09T08:11:21;3.75;;;0.90;;
38034;SDS011;23841;48.524;1.342;2022-09-09T08:13:49;3.28;;;1.08;;
38034;SDS011;23841;48.524;1.342;2022-09-09T08:16:16;4.35;;;0.85;;
38034;SDS011;23841;48.524;1.342;2022-09-09T08:18:46;2.42;;;0.93;;
38034;SDS011;23841;48.524;1.342;2022-09-09T08:21:17;5.88;;;1.02;;
38034;SDS011;23841;48.524;1.342;2022-09-09T08:23:45;2.67;;;0.80;;
38034;SDS011;23841;48.524;1.342;2022-09-09T08:28:40;2.13;;;0.75;;
38034;SDS011;23841;48.524;1.342;2022-09-09T08:31:06;2.08;;;0.73;;
38034;SDS011;23841;48.524;1.342;2022-09-09T08:33:36;3.75;;;0.70;;
38034;SDS011;23841;48.524;1.342;2022-09-09T08:36:03;3.97;;;1.10;;
38034;SDS011;23841;48.524;1.342;2022-09-09T08:38:30;3.30;;;0.90;;
38034;SDS011;23841;48.524;1.342;2022-09-09T08:40:57;3.22;;;0.80;;
38034;SDS011;23841;48.524;1.342;2022-09-09T08:43:31;5.85;;;1.13;;
38034;SDS011;23841;48.524;1.342;2022-09-09T08:46:04;3.75;;;0.77;;
38034;SDS011;23841;48.524;1.342;2022-09-09T08:48:43;3.28;;;0.80;;
38034;SDS011;23841;48.524;1.342;2022-09-09T08:51:20;3.10;;;1.10;;
38034;SDS011;23841;48.524;1.342;2022-09-09T08:53:48;4.60;;;0.90;;
38034;SDS011;23841;48.524;1.342;2022-09-09T08:56:16;2.67;;;0.80;;
38034;SDS011;23841;48.524;1.342;2022-09-09T08:58:48;6.32;;;1.17;;
38034;SDS011;23841;48.524;1.342;2022-09-09T09:09:47;3.17;;;0.80;;
38034;SDS011;23841;48.524;1.342;2022-09-09T09:12:20;5.00;;;1.02;;
38034;SDS011;23841;48.524;1.342;2022-09-09T09:14:48;4.80;;;1.00;;
38034;SDS011;23841;48.524;1.342;2022-09-09T09:17:14;3.42;;;0.80;;
38034;SDS011;23841;48.524;1.342;2022-09-09T09:19:44;3.90;;;0.95;;
38034;SDS011;23841;48.524;1.342;2022-09-09T09:22:21;3.30;;;1.00;;
38034;SDS011;23841;48.524;1.342;2022-09-09T09:24:57;3.03;;;0.95;;
38034;SDS011;23841;48.524;1.342;2022-09-09T09:27:32;2.85;;;0.88;;
38034;SDS011;23841;48.524;1.342;2022-09-09T09:30:01;6.22;;;1.40;;
38034;SDS011;23841;48.524;1.342;2022-09-09T09:32:37;3.50;;;0.90;;
38034;SDS011;23841;48.524;1.342;2022-09-09T09:35:10;3.15;;;1.33;;
38034;SDS011;23841;48.524;1.342;2022-09-09T09:37:37;7.15;;;1.83;;
38034;SDS011;23841;48.524;1.342;2022-09-09T09:40:11;2.65;;;1.00;;
38034;SDS011;23841;48.524;1.342;2022-09-09T09:42:48;6.90;;;1.45;;
38034;SDS011;23841;48.524;1.342;2022-09-09T09:48:01;5.55;;;1.20;;
38034;SDS011;23841;48.524;1.342;2022-09-09T09:50:28;3.13;;;0.82;;
38034;SDS011;23841;48.524;1.342;2022-09-09T09:53:04;2.97;;;0.93;;
38034;SDS011;23841;48.524;1.342;2022-09-09T09:55:31;6.82;;;0.90;;
38034;SDS011;23841;48.524;1.342;2022-09-09T09:58:00;2.63;;;0.90;;
38034;SDS011;23841;48.524;1.342;2022-09-09T10:00:28;4.07;;;0.82;;
38034;SDS011;23841;48.524;1.342;2022-09-09T10:02:53;2.75;;;0.77;;
38034;SDS011;23841;48.524;1.342;2022-09-09T10:05:23;1.52;;;0.68;;
38034;SDS011;23841;48.524;1.342;2022-09-09T10:08:02;3.45;;;0.80;;
38034;SDS011;23841;48.524;1.342;2022-09-09T10:10:37;2.97;;;1.13;;
38034;SDS011;23841;48.524;1.342;2022-09-09T10:16:15;6.07;;;1.05;;
38034;SDS011;23841;48.524;1.342;2022-09-09T10:21:15;4.65;;;1.02;;
38034;SDS011;23841;48.524;1.342;2022-09-09T10:29:05;1.92;;;0.70;;
38034;SDS011;23841;48.524;1.342;2022-09-09T10:31:40;2.28;;;0.85;;
38034;SDS011;23841;48.524;1.342;2022-09-09T10:37:26;7.65;;;1.40;;
38034;SDS011;23841;48.524;1.342;2022-09-09T10:40:21;5.75;;;0.98;;
38034;SDS011;23841;48.524;1.342;2022-09-09T10:42:51;2.47;;;1.05;;
38034;SDS011;23841;48.524;1.342;2022-09-09T10:45:23;2.90;;;1.10;;
38034;SDS011;23841;48.524;1.342;2022-09-09T10:48:03;2.42;;;0.70;;
38034;SDS011;23841;48.524;1.342;2022-09-09T10:53:28;4.88;;;0.90;;
38034;SDS011;23841;48.524;1.342;2022-09-09T10:56:15;7.97;;;1.20;;
38034;SDS011;23841;48.524;1.342;2022-09-09T10:58:53;2.67;;;0.80;;
38034;SDS011;23841;48.524;1.342;2022-09-09T11:01:39;0.95;;;0.47;;
38034;SDS011;23841;48.524;1.342;2022-09-09T11:04:12;3.70;;;1.27;;
38034;SDS011;23841;48.524;1.342;2022-09-09T11:06:44;3.20;;;0.85;;
38034;SDS011;23841;48.524;1.342;2022-09-09T11:09:16;3.47;;;0.88;;
38034;SDS011;23841;48.524;1.342;2022-09-09T11:11:55;3.25;;;0.90;;
38034;SDS011;23841;48.524;1.342;2022-09-09T11:14:26;1.55;;;0.50;;
38034;SDS011;23841;48.524;1.342;2022-09-09T11:19:42;6.05;;;1.15;;
38034;SDS011;23841;48.524;1.342;2022-09-09T11:25:10;5.65;;;0.75;;
38034;SDS011;23841;48.524;1.342;2022-09-09T11:27:58;2.50;;;0.63;;
38034;SDS011;23841;48.524;1.342;2022-09-09T11:31:18;2.15;;;1.25;;
38034;SDS011;23841;48.524;1.342;2022-09-09T11:33:58;2.63;;;1.05;;
38034;SDS011;23841;48.524;1.342;2022-09-09T11:39:36;2.33;;;0.60;;
38034;SDS011;23841;48.524;1.342;2022-09-09T11:42:20;2.78;;;1.13;;
38034;SDS011;23841;48.524;1.342;2022-09-09T11:44:48;1.95;;;1.35;;
38034;SDS011;23841;48.524;1.342;2022-09-09T11:47:28;2.83;;;1.25;;
38034;SDS011;23841;48.524;1.342;2022-09-09T11:52:36;3.72;;;0.85;;
38034;SDS011;23841;48.524;1.342;2022-09-09T11:55:24;2.75;;;0.90;;
38034;SDS011;23841;48.524;1.342;2022-09-09T11:57:59;6.85;;;1.63;;
38034;SDS011;23841;48.524;1.342;2022-09-09T12:00:33;2.15;;;0.70;;
38034;SDS011;23841;48.524;1.342;2022-09-09T12:08:46;4.80;;;0.90;;
38034;SDS011;23841;48.524;1.342;2022-09-09T12:11:26;3.30;;;1.23;;
38034;SDS011;23841;48.524;1.342;2022-09-09T12:13:57;2.65;;;1.13;;
38034;SDS011;23841;48.524;1.342;2022-09-09T12:16:34;4.15;;;0.98;;
38034;SDS011;23841;48.524;1.342;2022-09-09T12:19:06;4.63;;;0.85;;
38034;SDS011;23841;48.524;1.342;2022-09-09T12:21:44;3.30;;;0.90;;
38034;SDS011;23841;48.524;1.342;2022-09-09T12:24:17;1.85;;;0.70;;
38034;SDS011;23841;48.524;1.342;2022-09-09T12:29:42;3.38;;;0.90;;
38034;SDS011;23841;48.524;1.342;2022-09-09T12:32:24;6.53;;;1.52;;
38034;SDS011;23841;48.524;1.342;2022-09-09T12:37:52;4.38;;;0.90;;
38034;SDS011;23841;48.524;1.342;2022-09-09T12:40:32;3.75;;;0.80;;
38034;SDS011;23841;48.524;1.342;2022-09-09T12:43:01;2.50;;;1.15;;
38034;SDS011;23841;48.524;1.342;2022-09-09T12:45:31;1.85;;;1.17;;
38034;SDS011;23841;48.524;1.342;2022-09-09T12:50:30;2.00;;;0.75;;
38034;SDS011;23841;48.524;1.342;2022-09-09T12:52:58;2.60;;;0.90;;
38034;SDS011;23841;48.524;1.342;2022-09-09T12:55:32;2.70;;;0.60;;
38034;SDS011;23841;48.524;1.342;2022-09-09T12:58:01;5.72;;;1.13;;
38034;SDS011;23841;48.524;1.342;2022-09-09T13:00:31;4.47;;;1.05;;
38034;SDS011;23841;48.524;1.342;2022-09-09T13:03:02;0.80;;;0.50;;
38034;SDS011;23841;48.524;1.342;2022-09-09T13:05:41;2.55;;;0.80;;
38034;SDS011;23841;48.524;1.342;2022-09-09T13:08:10;4.78;;;1.35;;
38034;SDS011;23841;48.524;1.342;2022-09-09T13:10:39;2.75;;;0.90;;
38034;SDS011;23841;48.524;1.342;2022-09-09T13:13:20;4.38;;;0.70;;
38034;SDS011;23841;48.524;1.342;2022-09-09T13:15:52;2.80;;;0.80;;
38034;SDS011;23841;48.524;1.342;2022-09-09T13:18:24;1.83;;;0.70;;
38034;SDS011;23841;48.524;1.342;2022-09-09T13:20:54;1.47;;;0.60;;
38034;SDS011;23841;48.524;1.342;2022-09-09T13:23:22;4.28;;;0.73;;
38034;SDS011;23841;48.524;1.342;2022-09-09T13:26:03;2.13;;;0.63;;
38034;SDS011;23841;48.524;1.342;2022-09-09T13:28:32;2.65;;;0.80;;
38034;SDS011;23841;48.524;1.342;2022-09-09T13:31:03;2.40;;;0.73;;
38034;SDS011;23841;48.524;1.342;2022-09-09T13:33:35;3.67;;;0.90;;
38034;SDS011;23841;48.524;1.342;2022-09-09T13:36:03;3.25;;;0.70;;
38034;SDS011;23841;48.524;1.342;2022-09-09T13:38:33;3.90;;;0.90;;
38034;SDS011;23841;48.524;1.342;2022-09-09T13:41:19;5.28;;;0.90;;
38034;SDS011;23841;48.524;1.342;2022-09-09T13:43:56;3.58;;;0.93;;
38034;SDS011;23841;48.524;1.342;2022-09-09T13:46:31;6.22;;;1.70;;
38034;SDS011;23841;48.524;1.342;2022-09-09T13:51:40;6.07;;;0.95;;
38034;SDS011;23841;48.524;1.342;2022-09-09T13:54:10;3.15;;;0.82;;
38034;SDS011;23841;48.524;1.342;2022-09-09T13:56:38;10.48;;;2.40;;
38034;SDS011;23841;48.524;1.342;2022-09-09T13:59:05;3.85;;;1.30;;
38034;SDS011;23841;48.524;1.342;2022-09-09T14:01:35;2.90;;;0.90;;
38034;SDS011;23841;48.524;1.342;2022-09-09T14:04:02;4.75;;;0.93;;
38034;SDS011;23841;48.524;1.342;2022-09-09T14:06:27;2.97;;;1.00;;
38034;SDS011;23841;48.524;1.342;2022-09-09T14:08:54;5.47;;;1.77;;
38034;SDS011;23841;48.524;1.342;2022-09-09T14:11:19;3.53;;;0.85;;
38034;SDS011;23841;48.524;1.342;2022-09-09T14:13:46;7.22;;;1.15;;
38034;SDS011;23841;48.524;1.342;2022-09-09T14:16:14;6.55;;;1.27;;
38034;SDS011;23841;48.524;1.342;2022-09-09T14:18:41;12.50;;;1.38;;
38034;SDS011;23841;48.524;1.342;2022-09-09T14:21:06;8.63;;;1.05;;
38034;SDS011;23841;48.524;1.342;2022-09-09T14:23:33;6.68;;;1.30;;
38034;SDS011;23841;48.524;1.342;2022-09-09T14:25:59;67.15;;;21.67;;
38034;SDS011;23841;48.524;1.342;2022-09-09T14:28:25;216.55;;;52.55;;
38034;SDS011;23841;48.524;1.342;2022-09-09T14:30:50;223.70;;;59.55;;
38034;SDS011;23841;48.524;1.342;2022-09-09T14:33:16;223.48;;;66.68;;
38034;SDS011;23841;48.524;1.342;2022-09-09T14:35:42;240.02;;;74.82;;
38034;SDS011;23841;48.524;1.342;2022-09-09T14:38:09;276.92;;;74.03;;
38034;SDS011;23841;48.524;1.342;2022-09-09T14:40:35;210.60;;;65.57;;
38034;SDS011;23841;48.524;1.342;2022-09-09T14:43:02;205.73;;;62.40;;
38034;SDS011;23841;48.524;1.342;2022-09-09T14:45:28;202.57;;;57.65;;
38034;SDS011;23841;48.524;1.342;2022-09-09T14:47:54;185.30;;;53.40;;
38034;SDS011;23841;48.524;1.342;2022-09-09T14:50:20;143.15;;;45.95;;
38034;SDS011;23841;48.524;1.342;2022-09-09T14:52:47;148.57;;;42.40;;
38034;SDS011;23841;48.524;1.342;2022-09-09T14:55:15;147.60;;;43.95;;
38034;SDS011;23841;48.524;1.342;2022-09-09T14:57:41;109.22;;;33.90;;
38034;SDS011;23841;48.524;1.342;2022-09-09T15:00:08;120.60;;;34.13;;
38034;SDS011;23841;48.524;1.342;2022-09-09T15:02:36;101.95;;;29.90;;
38034;SDS011;23841;48.524;1.342;2022-09-09T15:05:01;84.50;;;26.38;;
38034;SDS011;23841;48.524;1.342;2022-09-09T15:07:27;80.70;;;22.98;;
38034;SDS011;23841;48.524;1.342;2022-09-09T15:09:53;75.88;;;24.38;;
38034;SDS011;23841;48.524;1.342;2022-09-09T15:12:19;66.78;;;23.85;;
38034;SDS011;23841;48.524;1.342;2022-09-09T15:14:45;53.88;;;19.38;;
38034;SDS011;23841;48.524;1.342;2022-09-09T15:17:11;55.08;;;20.50;;
38034;SDS011;23841;48.524;1.342;2022-09-09T15:19:37;56.38;;;17.95;;
38034;SDS011;23841;48.524;1.342;2022-09-09T15:22:03;49.35;;;16.63;;
38034;SDS011;23841;48.524;1.342;2022-09-09T15:24:30;51.25;;;16.45;;
38034;SDS011;23841;48.524;1.342;2022-09-09T15:26:56;46.10;;;13.55;;
38034;SDS011;23841;48.524;1.342;2022-09-09T15:29:22;39.30;;;13.00;;
38034;SDS011;23841;48.524;1.342;2022-09-09T15:31:49;35.78;;;11.13;;
38034;SDS011;23841;48.524;1.342;2022-09-09T15:34:15;43.80;;;10.25;;
38034;SDS011;23841;48.524;1.342;2022-09-09T15:36:44;39.78;;;10.38;;
38034;SDS011;23841;48.524;1.342;2022-09-09T15:39:14;23.50;;;7.85;;
38034;SDS011;23841;48.524;1.342;2022-09-09T15:41:41;28.25;;;10.35;;
38034;SDS011;23841;48.524;1.342;2022-09-09T15:44:08;27.27;;;8.23;;
38034;SDS011;23841;48.524;1.342;2022-09-09T15:46:36;20.73;;;7.25;;
38034;SDS011;23841;48.524;1.342;2022-09-09T15:49:08;15.10;;;5.80;;
38034;SDS011;23841;48.524;1.342;2022-09-09T15:51:36;20.20;;;5.95;;
38034;SDS011;23841;48.524;1.342;2022-09-09T15:56:38;16.35;;;5.55;;
38034;SDS011;23841;48.524;1.342;2022-09-09T15:59:03;15.13;;;4.95;;
38034;SDS011;23841;48.524;1.342;2022-09-09T16:01:29;19.48;;;4.80;;
38034;SDS011;23841;48.524;1.342;2022-09-09T16:03:56;19.73;;;5.60;;
38034;SDS011;23841;48.524;1.342;2022-09-09T16:06:23;12.15;;;4.85;;
38034;SDS011;23841;48.524;1.342;2022-09-09T16:08:50;14.40;;;4.28;;
38034;SDS011;23841;48.524;1.342;2022-09-09T16:11:25;10.02;;;3.45;;
38034;SDS011;23841;48.524;1.342;2022-09-09T16:13:53;13.20;;;3.95;;
38034;SDS011;23841;48.524;1.342;2022-09-09T16:16:21;9.95;;;3.72;;
38034;SDS011;23841;48.524;1.342;2022-09-09T16:18:53;13.02;;;3.40;;
38034;SDS011;23841;48.524;1.342;2022-09-09T16:21:24;10.73;;;3.40;;
38034;SDS011;23841;48.524;1.342;2022-09-09T16:23:52;9.32;;;3.10;;
38034;SDS011;23841;48.524;1.342;2022-09-09T16:26:18;6.95;;;2.72;;
38034;SDS011;23841;48.524;1.342;2022-09-09T16:28:44;8.18;;;2.72;;
38034;SDS011;23841;48.524;1.342;2022-09-09T16:31:12;5.75;;;1.73;;
38034;SDS011;23841;48.524;1.342;2022-09-09T16:33:41;7.35;;;2.05;;
38034;SDS011;23841;48.524;1.342;2022-09-09T16:36:16;4.15;;;1.85;;
38034;SDS011;23841;48.524;1.342;2022-09-09T16:38:56;7.78;;;2.70;;
38034;SDS011;23841;48.524;1.342;2022-09-09T16:41:24;5.97;;;1.70;;
38034;SDS011;23841;48.524;1.342;2022-09-09T16:43:59;6.78;;;1.98;;
38034;SDS011;23841;48.524;1.342;2022-09-09T16:46:28;4.07;;;1.20;;
38034;SDS011;23841;48.524;1.342;2022-09-09T16:48:57;6.53;;;2.05;;
38034;SDS011;23841;48.524;1.342;2022-09-09T16:51:28;4.75;;;1.83;;
38034;SDS011;23841;48.524;1.342;2022-09-09T16:53:56;4.68;;;1.73;;
38034;SDS011;23841;48.524;1.342;2022-09-09T16:56:25;5.70;;;1.90;;